sensor_id;sensor_type;location;lat;lon;timestamp;P1;durP1;ratioP1;P2;durP2;ratioP2
19436;SDS011;9854;50.968;4.168;2023-05-27T00:00:03;24.88;;;6.10;;
19436;SDS011;9854;50.968;4.168;2023-05-27T00:02:33;30.60;;;6.38;;
19436;SDS011;9854;50.968;4.168;2023-05-27T00:04:59;26.60;;;6.32;;
19436;SDS011;9854;50.968;4.168;2023-05-27T00:07:25;18.58;;;5.35;;
19436;SDS011;9854;50.968;4.168;2023-05-27T00:09:51;20.10;;;5.95;;
19436;SDS011;9854;50.968;4.168;2023-05-27T00:12:17;23.90;;;6.35;;
19436;SDS011;9854;50.968;4.168;2023-05-27T00:14:43;23.00;;;5.90;;
19436;SDS011;9854;50.968;4.168;2023-05-27T00:17:09;25.98;;;5.78;;
19436;SDS011;9854;50.968;4.168;2023-05-27T00:19:38;20.75;;;5.65;;
19436;SDS011;9854;50.968;4.168;2023-05-27T00:22:10;25.92;;;6.18;;
19436;SDS011;9854;50.968;4.168;2023-05-27T00:24:36;23.15;;;6.53;;
19436;SDS011;9854;50.968;4.168;2023-05-27T00:27:04;23.38;;;6.55;;
19436;SDS011;9854;50.968;4.168;2023-05-27T00:29:30;25.58;;;6.50;;
19436;SDS011;9854;50.968;4.168;2023-05-27T00:31:56;25.45;;;6.05;;
19436;SDS011;9854;50.968;4.168;2023-05-27T00:34:22;23.55;;;6.35;;
19436;SDS011;9854;50.968;4.168;2023-05-27T00:36:47;23.13;;;6.70;;
19436;SDS011;9854;50.968;4.168;2023-05-27T00:39:13;24.00;;;6.93;;
19436;SDS011;9854;50.968;4.168;2023-05-27T00:41:39;19.02;;;5.90;;
19436;SDS011;9854;50.968;4.168;2023-05-27T00:44:12;23.83;;;7.43;;
19436;SDS011;9854;50.968;4.168;2023-05-27T00:46:37;29.70;;;6.55;;
19436;SDS011;9854;50.968;4.168;2023-05-27T00:49:03;22.27;;;6.30;;
19436;SDS011;9854;50.968;4.168;2023-05-27T00:51:29;21.13;;;6.13;;
19436;SDS011;9854;50.968;4.168;2023-05-27T00:53:56;21.80;;;6.55;;
19436;SDS011;9854;50.968;4.168;2023-05-27T00:56:21;20.17;;;6.10;;
19436;SDS011;9854;50.968;4.168;2023-05-27T00:58:47;23.42;;;6.55;;
19436;SDS011;9854;50.968;4.168;2023-05-27T01:01:13;22.50;;;6.55;;
19436;SDS011;9854;50.968;4.168;2023-05-27T01:03:39;19.15;;;6.82;;
19436;SDS011;9854;50.968;4.168;2023-05-27T01:08:40;23.10;;;6.22;;
19436;SDS011;9854;50.968;4.168;2023-05-27T01:11:36;22.45;;;6.93;;
19436;SDS011;9854;50.968;4.168;2023-05-27T01:14:07;28.20;;;6.68;;
19436;SDS011;9854;50.968;4.168;2023-05-27T01:16:36;21.52;;;6.30;;
19436;SDS011;9854;50.968;4.168;2023-05-27T01:19:12;25.35;;;6.68;;
19436;SDS011;9854;50.968;4.168;2023-05-27T01:21:39;20.45;;;5.78;;
19436;SDS011;9854;50.968;4.168;2023-05-27T01:24:10;29.83;;;6.80;;
19436;SDS011;9854;50.968;4.168;2023-05-27T01:26:36;25.85;;;6.90;;
19436;SDS011;9854;50.968;4.168;2023-05-27T01:29:02;16.50;;;6.00;;
19436;SDS011;9854;50.968;4.168;2023-05-27T01:31:33;24.35;;;6.35;;
19436;SDS011;9854;50.968;4.168;2023-05-27T01:34:06;26.35;;;6.95;;
19436;SDS011;9854;50.968;4.168;2023-05-27T01:36:39;22.80;;;6.97;;
19436;SDS011;9854;50.968;4.168;2023-05-27T01:39:12;20.92;;;6.30;;
19436;SDS011;9854;50.968;4.168;2023-05-27T01:41:38;17.85;;;5.75;;
19436;SDS011;9854;50.968;4.168;2023-05-27T01:44:06;23.98;;;6.68;;
19436;SDS011;9854;50.968;4.168;2023-05-27T01:46:33;20.25;;;6.70;;
19436;SDS011;9854;50.968;4.168;2023-05-27T01:48:58;21.77;;;6.20;;
19436;SDS011;9854;50.968;4.168;2023-05-27T01:51:24;22.73;;;6.63;;
19436;SDS011;9854;50.968;4.168;2023-05-27T01:53:50;27.00;;;6.80;;
19436;SDS011;9854;50.968;4.168;2023-05-27T01:56:16;20.30;;;6.60;;
19436;SDS011;9854;50.968;4.168;2023-05-27T01:58:41;29.48;;;6.68;;
19436;SDS011;9854;50.968;4.168;2023-05-27T02:01:07;22.75;;;7.05;;
19436;SDS011;9854;50.968;4.168;2023-05-27T02:03:33;19.67;;;6.63;;
19436;SDS011;9854;50.968;4.168;2023-05-27T02:05:58;29.27;;;7.55;;
19436;SDS011;9854;50.968;4.168;2023-05-27T02:08:24;23.55;;;6.72;;
19436;SDS011;9854;50.968;4.168;2023-05-27T02:10:50;30.02;;;7.72;;
19436;SDS011;9854;50.968;4.168;2023-05-27T02:13:15;21.50;;;7.05;;
19436;SDS011;9854;50.968;4.168;2023-05-27T02:15:41;25.13;;;6.80;;
19436;SDS011;9854;50.968;4.168;2023-05-27T02:18:06;21.58;;;6.95;;
19436;SDS011;9854;50.968;4.168;2023-05-27T02:20:32;24.73;;;6.63;;
19436;SDS011;9854;50.968;4.168;2023-05-27T02:22:58;27.33;;;6.97;;
19436;SDS011;9854;50.968;4.168;2023-05-27T02:25:26;22.17;;;6.70;;
19436;SDS011;9854;50.968;4.168;2023-05-27T02:27:51;26.17;;;6.82;;
19436;SDS011;9854;50.968;4.168;2023-05-27T02:30:17;22.25;;;6.53;;
19436;SDS011;9854;50.968;4.168;2023-05-27T02:32:43;28.67;;;7.00;;
19436;SDS011;9854;50.968;4.168;2023-05-27T02:35:09;23.48;;;7.07;;
19436;SDS011;9854;50.968;4.168;2023-05-27T02:37:38;20.75;;;6.55;;
19436;SDS011;9854;50.968;4.168;2023-05-27T02:40:04;23.52;;;6.50;;
19436;SDS011;9854;50.968;4.168;2023-05-27T02:42:30;27.70;;;6.85;;
19436;SDS011;9854;50.968;4.168;2023-05-27T02:44:56;20.97;;;6.53;;
19436;SDS011;9854;50.968;4.168;2023-05-27T02:47:22;27.05;;;6.72;;
19436;SDS011;9854;50.968;4.168;2023-05-27T02:49:47;20.73;;;6.75;;
19436;SDS011;9854;50.968;4.168;2023-05-27T02:52:13;21.43;;;6.90;;
19436;SDS011;9854;50.968;4.168;2023-05-27T02:54:38;21.90;;;6.38;;
19436;SDS011;9854;50.968;4.168;2023-05-27T02:57:04;23.83;;;6.50;;
19436;SDS011;9854;50.968;4.168;2023-05-27T02:59:30;24.63;;;6.78;;
19436;SDS011;9854;50.968;4.168;2023-05-27T03:01:55;22.43;;;6.70;;
19436;SDS011;9854;50.968;4.168;2023-05-27T03:04:21;25.73;;;6.85;;
19436;SDS011;9854;50.968;4.168;2023-05-27T03:06:46;29.30;;;6.80;;
19436;SDS011;9854;50.968;4.168;2023-05-27T03:09:12;20.70;;;6.82;;
19436;SDS011;9854;50.968;4.168;2023-05-27T03:11:39;24.63;;;6.72;;
19436;SDS011;9854;50.968;4.168;2023-05-27T03:14:05;25.57;;;7.17;;
19436;SDS011;9854;50.968;4.168;2023-05-27T03:16:30;20.97;;;6.83;;
19436;SDS011;9854;50.968;4.168;2023-05-27T03:18:56;23.93;;;6.67;;
19436;SDS011;9854;50.968;4.168;2023-05-27T03:21:22;22.50;;;6.83;;
19436;SDS011;9854;50.968;4.168;2023-05-27T03:23:47;33.00;;;7.53;;
19436;SDS011;9854;50.968;4.168;2023-05-27T03:26:13;18.05;;;6.70;;
19436;SDS011;9854;50.968;4.168;2023-05-27T03:28:39;16.80;;;6.30;;
19436;SDS011;9854;50.968;4.168;2023-05-27T03:31:05;21.37;;;7.07;;
19436;SDS011;9854;50.968;4.168;2023-05-27T03:33:30;22.30;;;7.53;;
19436;SDS011;9854;50.968;4.168;2023-05-27T03:35:56;20.47;;;6.73;;
19436;SDS011;9854;50.968;4.168;2023-05-27T03:38:22;27.43;;;7.67;;
19436;SDS011;9854;50.968;4.168;2023-05-27T03:40:47;25.53;;;8.03;;
19436;SDS011;9854;50.968;4.168;2023-05-27T03:43:13;20.00;;;6.83;;
19436;SDS011;9854;50.968;4.168;2023-05-27T03:45:38;23.60;;;7.20;;
19436;SDS011;9854;50.968;4.168;2023-05-27T03:48:04;22.40;;;6.43;;
19436;SDS011;9854;50.968;4.168;2023-05-27T03:50:31;24.57;;;7.00;;
19436;SDS011;9854;50.968;4.168;2023-05-27T03:52:58;29.03;;;7.47;;
19436;SDS011;9854;50.968;4.168;2023-05-27T03:55:23;23.70;;;7.83;;
19436;SDS011;9854;50.968;4.168;2023-05-27T03:57:49;23.33;;;6.83;;
19436;SDS011;9854;50.968;4.168;2023-05-27T04:00:15;23.95;;;6.65;;
19436;SDS011;9854;50.968;4.168;2023-05-27T04:02:42;29.40;;;7.60;;
19436;SDS011;9854;50.968;4.168;2023-05-27T04:05:08;23.57;;;6.87;;
19436;SDS011;9854;50.968;4.168;2023-05-27T04:07:34;17.40;;;6.53;;
19436;SDS011;9854;50.968;4.168;2023-05-27T04:10:00;26.83;;;6.67;;
19436;SDS011;9854;50.968;4.168;2023-05-27T04:12:25;20.17;;;7.23;;
19436;SDS011;9854;50.968;4.168;2023-05-27T04:14:51;29.93;;;7.37;;
19436;SDS011;9854;50.968;4.168;2023-05-27T04:17:16;26.10;;;7.07;;
19436;SDS011;9854;50.968;4.168;2023-05-27T04:19:42;22.80;;;7.17;;
19436;SDS011;9854;50.968;4.168;2023-05-27T04:22:08;27.13;;;6.77;;
19436;SDS011;9854;50.968;4.168;2023-05-27T04:24:34;27.03;;;7.40;;
19436;SDS011;9854;50.968;4.168;2023-05-27T04:27:00;23.10;;;7.23;;
19436;SDS011;9854;50.968;4.168;2023-05-27T04:29:27;22.53;;;6.90;;
19436;SDS011;9854;50.968;4.168;2023-05-27T04:31:53;21.27;;;7.10;;
19436;SDS011;9854;50.968;4.168;2023-05-27T04:34:18;21.10;;;6.57;;
19436;SDS011;9854;50.968;4.168;2023-05-27T04:36:44;23.53;;;7.53;;
19436;SDS011;9854;50.968;4.168;2023-05-27T04:39:14;22.30;;;6.82;;
19436;SDS011;9854;50.968;4.168;2023-05-27T04:41:43;27.77;;;8.17;;
19436;SDS011;9854;50.968;4.168;2023-05-27T04:44:10;27.52;;;6.97;;
19436;SDS011;9854;50.968;4.168;2023-05-27T04:46:36;25.02;;;7.43;;
19436;SDS011;9854;50.968;4.168;2023-05-27T04:49:08;26.43;;;7.57;;
19436;SDS011;9854;50.968;4.168;2023-05-27T04:51:35;21.60;;;7.10;;
19436;SDS011;9854;50.968;4.168;2023-05-27T04:54:01;27.98;;;7.78;;
19436;SDS011;9854;50.968;4.168;2023-05-27T04:56:27;25.40;;;7.00;;
19436;SDS011;9854;50.968;4.168;2023-05-27T04:58:53;21.73;;;8.33;;
19436;SDS011;9854;50.968;4.168;2023-05-27T05:01:20;19.02;;;8.07;;
19436;SDS011;9854;50.968;4.168;2023-05-27T05:03:47;21.50;;;7.47;;
19436;SDS011;9854;50.968;4.168;2023-05-27T05:06:18;23.95;;;7.63;;
19436;SDS011;9854;50.968;4.168;2023-05-27T05:08:46;26.77;;;7.33;;
19436;SDS011;9854;50.968;4.168;2023-05-27T05:11:12;24.02;;;8.10;;
19436;SDS011;9854;50.968;4.168;2023-05-27T05:13:39;23.70;;;6.97;;
19436;SDS011;9854;50.968;4.168;2023-05-27T05:16:05;23.15;;;8.20;;
19436;SDS011;9854;50.968;4.168;2023-05-27T05:18:31;25.90;;;7.65;;
19436;SDS011;9854;50.968;4.168;2023-05-27T05:20:56;23.33;;;7.88;;
19436;SDS011;9854;50.968;4.168;2023-05-27T05:23:22;21.38;;;8.30;;
19436;SDS011;9854;50.968;4.168;2023-05-27T05:25:48;22.98;;;8.27;;
19436;SDS011;9854;50.968;4.168;2023-05-27T05:28:19;19.08;;;7.18;;
19436;SDS011;9854;50.968;4.168;2023-05-27T05:30:45;24.42;;;8.30;;
19436;SDS011;9854;50.968;4.168;2023-05-27T05:33:11;25.65;;;7.93;;
19436;SDS011;9854;50.968;4.168;2023-05-27T05:35:37;25.75;;;8.48;;
19436;SDS011;9854;50.968;4.168;2023-05-27T05:38:02;17.27;;;7.68;;
19436;SDS011;9854;50.968;4.168;2023-05-27T05:40:28;24.48;;;7.65;;
19436;SDS011;9854;50.968;4.168;2023-05-27T05:42:53;26.05;;;8.30;;
19436;SDS011;9854;50.968;4.168;2023-05-27T05:45:19;28.58;;;9.32;;
19436;SDS011;9854;50.968;4.168;2023-05-27T05:47:45;22.23;;;8.52;;
19436;SDS011;9854;50.968;4.168;2023-05-27T05:50:10;21.88;;;8.20;;
19436;SDS011;9854;50.968;4.168;2023-05-27T05:52:36;20.30;;;7.28;;
19436;SDS011;9854;50.968;4.168;2023-05-27T05:55:02;23.30;;;8.60;;
19436;SDS011;9854;50.968;4.168;2023-05-27T05:57:28;21.33;;;7.68;;
19436;SDS011;9854;50.968;4.168;2023-05-27T05:59:56;26.95;;;7.90;;
19436;SDS011;9854;50.968;4.168;2023-05-27T06:02:22;24.83;;;7.60;;
19436;SDS011;9854;50.968;4.168;2023-05-27T06:04:48;25.33;;;7.47;;
19436;SDS011;9854;50.968;4.168;2023-05-27T06:07:14;22.33;;;7.85;;
19436;SDS011;9854;50.968;4.168;2023-05-27T06:09:39;25.98;;;8.45;;
19436;SDS011;9854;50.968;4.168;2023-05-27T06:12:05;22.75;;;7.93;;
19436;SDS011;9854;50.968;4.168;2023-05-27T06:14:31;21.08;;;8.40;;
19436;SDS011;9854;50.968;4.168;2023-05-27T06:16:57;27.75;;;8.88;;
19436;SDS011;9854;50.968;4.168;2023-05-27T06:19:22;29.17;;;9.13;;
19436;SDS011;9854;50.968;4.168;2023-05-27T06:21:48;20.77;;;7.90;;
19436;SDS011;9854;50.968;4.168;2023-05-27T06:24:14;21.10;;;8.57;;
19436;SDS011;9854;50.968;4.168;2023-05-27T06:26:40;25.08;;;8.50;;
19436;SDS011;9854;50.968;4.168;2023-05-27T06:29:06;26.98;;;8.40;;
19436;SDS011;9854;50.968;4.168;2023-05-27T06:31:31;28.48;;;8.63;;
19436;SDS011;9854;50.968;4.168;2023-05-27T06:33:58;23.35;;;7.70;;
19436;SDS011;9854;50.968;4.168;2023-05-27T06:36:24;27.48;;;8.35;;
19436;SDS011;9854;50.968;4.168;2023-05-27T06:38:49;24.05;;;8.07;;
19436;SDS011;9854;50.968;4.168;2023-05-27T06:41:15;27.52;;;8.35;;
19436;SDS011;9854;50.968;4.168;2023-05-27T06:43:41;24.30;;;8.10;;
19436;SDS011;9854;50.968;4.168;2023-05-27T06:46:07;25.35;;;7.88;;
19436;SDS011;9854;50.968;4.168;2023-05-27T06:48:32;23.58;;;7.97;;
19436;SDS011;9854;50.968;4.168;2023-05-27T06:50:58;22.88;;;8.27;;
19436;SDS011;9854;50.968;4.168;2023-05-27T06:53:24;31.75;;;8.45;;
19436;SDS011;9854;50.968;4.168;2023-05-27T06:55:50;22.70;;;7.80;;
19436;SDS011;9854;50.968;4.168;2023-05-27T06:58:16;26.17;;;8.45;;
19436;SDS011;9854;50.968;4.168;2023-05-27T07:00:41;22.73;;;7.82;;
19436;SDS011;9854;50.968;4.168;2023-05-27T07:03:07;26.67;;;8.35;;
19436;SDS011;9854;50.968;4.168;2023-05-27T07:05:32;23.48;;;8.40;;
19436;SDS011;9854;50.968;4.168;2023-05-27T07:07:58;21.95;;;7.70;;
19436;SDS011;9854;50.968;4.168;2023-05-27T07:10:24;25.45;;;8.27;;
19436;SDS011;9854;50.968;4.168;2023-05-27T07:12:49;18.15;;;7.43;;
19436;SDS011;9854;50.968;4.168;2023-05-27T07:15:15;25.63;;;7.97;;
19436;SDS011;9854;50.968;4.168;2023-05-27T07:17:41;23.55;;;7.85;;
19436;SDS011;9854;50.968;4.168;2023-05-27T07:20:07;21.08;;;7.95;;
19436;SDS011;9854;50.968;4.168;2023-05-27T07:22:33;22.88;;;7.75;;
19436;SDS011;9854;50.968;4.168;2023-05-27T07:24:58;24.05;;;8.10;;
19436;SDS011;9854;50.968;4.168;2023-05-27T07:27:24;25.13;;;8.52;;
19436;SDS011;9854;50.968;4.168;2023-05-27T07:29:50;22.13;;;8.00;;
19436;SDS011;9854;50.968;4.168;2023-05-27T07:32:15;28.88;;;8.10;;
19436;SDS011;9854;50.968;4.168;2023-05-27T07:34:41;25.00;;;8.38;;
19436;SDS011;9854;50.968;4.168;2023-05-27T07:37:07;21.75;;;7.82;;
19436;SDS011;9854;50.968;4.168;2023-05-27T07:39:32;21.83;;;7.60;;
19436;SDS011;9854;50.968;4.168;2023-05-27T07:41:58;26.52;;;7.25;;
19436;SDS011;9854;50.968;4.168;2023-05-27T07:44:23;22.02;;;7.85;;
19436;SDS011;9854;50.968;4.168;2023-05-27T07:46:49;26.00;;;7.85;;
19436;SDS011;9854;50.968;4.168;2023-05-27T07:49:15;23.77;;;6.82;;
19436;SDS011;9854;50.968;4.168;2023-05-27T07:51:41;25.08;;;7.63;;
19436;SDS011;9854;50.968;4.168;2023-05-27T07:54:06;19.90;;;7.22;;
19436;SDS011;9854;50.968;4.168;2023-05-27T07:56:32;20.23;;;7.60;;
19436;SDS011;9854;50.968;4.168;2023-05-27T07:58:59;26.80;;;8.32;;
19436;SDS011;9854;50.968;4.168;2023-05-27T08:01:25;19.73;;;7.50;;
19436;SDS011;9854;50.968;4.168;2023-05-27T08:03:55;26.42;;;7.45;;
19436;SDS011;9854;50.968;4.168;2023-05-27T08:06:21;19.25;;;7.13;;
19436;SDS011;9854;50.968;4.168;2023-05-27T08:08:46;18.65;;;7.32;;
19436;SDS011;9854;50.968;4.168;2023-05-27T08:11:13;18.92;;;6.90;;
19436;SDS011;9854;50.968;4.168;2023-05-27T08:13:38;15.27;;;6.80;;
19436;SDS011;9854;50.968;4.168;2023-05-27T08:16:04;21.27;;;7.28;;
19436;SDS011;9854;50.968;4.168;2023-05-27T08:18:30;18.42;;;7.15;;
19436;SDS011;9854;50.968;4.168;2023-05-27T08:20:55;22.23;;;7.75;;
19436;SDS011;9854;50.968;4.168;2023-05-27T08:23:21;17.27;;;7.25;;
19436;SDS011;9854;50.968;4.168;2023-05-27T08:25:47;22.63;;;7.40;;
19436;SDS011;9854;50.968;4.168;2023-05-27T08:28:13;17.95;;;7.05;;
19436;SDS011;9854;50.968;4.168;2023-05-27T08:30:39;23.52;;;7.60;;
19436;SDS011;9854;50.968;4.168;2023-05-27T08:33:04;21.30;;;7.93;;
19436;SDS011;9854;50.968;4.168;2023-05-27T08:35:30;23.67;;;7.68;;
19436;SDS011;9854;50.968;4.168;2023-05-27T08:37:56;24.35;;;7.50;;
19436;SDS011;9854;50.968;4.168;2023-05-27T08:40:22;17.08;;;7.68;;
19436;SDS011;9854;50.968;4.168;2023-05-27T08:42:47;24.42;;;7.03;;
19436;SDS011;9854;50.968;4.168;2023-05-27T08:45:13;21.90;;;8.18;;
19436;SDS011;9854;50.968;4.168;2023-05-27T08:47:40;22.85;;;7.70;;
19436;SDS011;9854;50.968;4.168;2023-05-27T08:50:06;15.82;;;7.10;;
19436;SDS011;9854;50.968;4.168;2023-05-27T08:52:32;18.60;;;6.95;;
19436;SDS011;9854;50.968;4.168;2023-05-27T08:54:58;24.17;;;7.68;;
19436;SDS011;9854;50.968;4.168;2023-05-27T08:57:29;25.10;;;8.25;;
19436;SDS011;9854;50.968;4.168;2023-05-27T08:59:56;18.70;;;7.20;;
19436;SDS011;9854;50.968;4.168;2023-05-27T09:02:23;20.58;;;7.88;;
19436;SDS011;9854;50.968;4.168;2023-05-27T09:04:49;22.42;;;7.40;;
19436;SDS011;9854;50.968;4.168;2023-05-27T09:07:15;24.75;;;7.60;;
19436;SDS011;9854;50.968;4.168;2023-05-27T09:09:42;18.42;;;7.13;;
19436;SDS011;9854;50.968;4.168;2023-05-27T09:12:21;20.17;;;6.93;;
19436;SDS011;9854;50.968;4.168;2023-05-27T09:14:51;22.33;;;7.88;;
19436;SDS011;9854;50.968;4.168;2023-05-27T09:17:19;28.08;;;7.55;;
19436;SDS011;9854;50.968;4.168;2023-05-27T09:19:47;22.90;;;7.72;;
19436;SDS011;9854;50.968;4.168;2023-05-27T09:22:31;16.15;;;6.78;;
19436;SDS011;9854;50.968;4.168;2023-05-27T09:24:57;19.85;;;6.93;;
19436;SDS011;9854;50.968;4.168;2023-05-27T09:29:55;24.85;;;7.57;;
19436;SDS011;9854;50.968;4.168;2023-05-27T09:32:30;25.13;;;7.15;;
19436;SDS011;9854;50.968;4.168;2023-05-27T09:35:00;28.25;;;7.75;;
19436;SDS011;9854;50.968;4.168;2023-05-27T09:37:26;23.05;;;7.28;;
19436;SDS011;9854;50.968;4.168;2023-05-27T09:40:18;19.23;;;7.07;;
19436;SDS011;9854;50.968;4.168;2023-05-27T09:42:43;32.35;;;8.23;;
19436;SDS011;9854;50.968;4.168;2023-05-27T09:45:12;23.17;;;7.93;;
19436;SDS011;9854;50.968;4.168;2023-05-27T09:47:39;15.27;;;6.40;;
19436;SDS011;9854;50.968;4.168;2023-05-27T09:50:09;24.38;;;7.03;;
19436;SDS011;9854;50.968;4.168;2023-05-27T09:52:39;19.13;;;6.68;;
19436;SDS011;9854;50.968;4.168;2023-05-27T09:55:06;23.13;;;7.20;;
19436;SDS011;9854;50.968;4.168;2023-05-27T09:57:34;18.15;;;6.45;;
19436;SDS011;9854;50.968;4.168;2023-05-27T10:00:01;21.73;;;7.07;;
19436;SDS011;9854;50.968;4.168;2023-05-27T10:02:33;24.38;;;7.03;;
19436;SDS011;9854;50.968;4.168;2023-05-27T10:05:01;19.40;;;7.10;;
19436;SDS011;9854;50.968;4.168;2023-05-27T10:07:33;18.90;;;6.97;;
19436;SDS011;9854;50.968;4.168;2023-05-27T10:10:01;23.48;;;6.55;;
19436;SDS011;9854;50.968;4.168;2023-05-27T10:12:27;23.50;;;7.40;;
19436;SDS011;9854;50.968;4.168;2023-05-27T10:14:53;23.23;;;7.00;;
19436;SDS011;9854;50.968;4.168;2023-05-27T10:17:21;19.05;;;7.47;;
19436;SDS011;9854;50.968;4.168;2023-05-27T10:19:53;18.33;;;6.15;;
19436;SDS011;9854;50.968;4.168;2023-05-27T10:22:22;18.13;;;7.05;;
19436;SDS011;9854;50.968;4.168;2023-05-27T10:24:48;20.30;;;6.22;;
19436;SDS011;9854;50.968;4.168;2023-05-27T10:27:15;23.17;;;6.80;;
19436;SDS011;9854;50.968;4.168;2023-05-27T10:29:40;23.05;;;5.97;;
19436;SDS011;9854;50.968;4.168;2023-05-27T10:32:06;52.83;;;6.68;;
19436;SDS011;9854;50.968;4.168;2023-05-27T10:34:41;21.60;;;7.10;;
19436;SDS011;9854;50.968;4.168;2023-05-27T10:37:08;26.75;;;6.43;;
19436;SDS011;9854;50.968;4.168;2023-05-27T10:39:36;18.10;;;6.18;;
19436;SDS011;9854;50.968;4.168;2023-05-27T10:42:02;11.98;;;5.03;;
19436;SDS011;9854;50.968;4.168;2023-05-27T10:44:35;16.35;;;6.00;;
19436;SDS011;9854;50.968;4.168;2023-05-27T10:47:11;23.60;;;6.57;;
19436;SDS011;9854;50.968;4.168;2023-05-27T10:49:44;19.35;;;6.15;;
19436;SDS011;9854;50.968;4.168;2023-05-27T10:52:12;22.35;;;6.18;;
19436;SDS011;9854;50.968;4.168;2023-05-27T10:54:39;15.38;;;5.25;;
19436;SDS011;9854;50.968;4.168;2023-05-27T10:57:06;16.02;;;5.35;;
19436;SDS011;9854;50.968;4.168;2023-05-27T10:59:47;18.77;;;6.07;;
19436;SDS011;9854;50.968;4.168;2023-05-27T11:02:15;14.02;;;4.90;;
19436;SDS011;9854;50.968;4.168;2023-05-27T11:04:41;20.92;;;6.60;;
19436;SDS011;9854;50.968;4.168;2023-05-27T11:07:07;21.75;;;6.40;;
19436;SDS011;9854;50.968;4.168;2023-05-27T11:09:52;26.20;;;6.15;;
19436;SDS011;9854;50.968;4.168;2023-05-27T11:12:22;14.85;;;5.45;;
19436;SDS011;9854;50.968;4.168;2023-05-27T11:17:15;21.77;;;6.15;;
19436;SDS011;9854;50.968;4.168;2023-05-27T11:19:42;18.35;;;4.80;;
19436;SDS011;9854;50.968;4.168;2023-05-27T11:22:10;21.40;;;5.35;;
19436;SDS011;9854;50.968;4.168;2023-05-27T11:24:37;17.42;;;5.25;;
19436;SDS011;9854;50.968;4.168;2023-05-27T11:27:09;17.35;;;6.10;;
19436;SDS011;9854;50.968;4.168;2023-05-27T11:29:36;22.20;;;5.97;;
19436;SDS011;9854;50.968;4.168;2023-05-27T11:32:03;18.73;;;6.55;;
19436;SDS011;9854;50.968;4.168;2023-05-27T11:34:35;14.52;;;5.07;;
19436;SDS011;9854;50.968;4.168;2023-05-27T11:37:04;17.13;;;5.00;;
19436;SDS011;9854;50.968;4.168;2023-05-27T11:39:30;17.85;;;5.18;;
19436;SDS011;9854;50.968;4.168;2023-05-27T11:41:56;19.30;;;5.75;;
19436;SDS011;9854;50.968;4.168;2023-05-27T11:44:23;15.63;;;5.80;;
19436;SDS011;9854;50.968;4.168;2023-05-27T11:46:50;26.42;;;5.50;;
19436;SDS011;9854;50.968;4.168;2023-05-27T11:49:22;25.08;;;4.95;;
19436;SDS011;9854;50.968;4.168;2023-05-27T11:51:54;23.38;;;5.90;;
19436;SDS011;9854;50.968;4.168;2023-05-27T11:54:24;16.92;;;5.53;;
19436;SDS011;9854;50.968;4.168;2023-05-27T11:56:52;14.88;;;4.93;;
19436;SDS011;9854;50.968;4.168;2023-05-27T11:59:19;15.00;;;4.95;;
19436;SDS011;9854;50.968;4.168;2023-05-27T12:01:46;13.57;;;4.70;;
19436;SDS011;9854;50.968;4.168;2023-05-27T12:04:12;16.40;;;5.20;;
19436;SDS011;9854;50.968;4.168;2023-05-27T12:06:38;35.90;;;5.10;;
19436;SDS011;9854;50.968;4.168;2023-05-27T12:09:05;30.77;;;5.68;;
19436;SDS011;9854;50.968;4.168;2023-05-27T12:11:32;24.85;;;5.63;;
19436;SDS011;9854;50.968;4.168;2023-05-27T12:13:58;19.20;;;5.03;;
19436;SDS011;9854;50.968;4.168;2023-05-27T12:16:24;18.02;;;5.00;;
19436;SDS011;9854;50.968;4.168;2023-05-27T12:18:50;14.25;;;5.25;;
19436;SDS011;9854;50.968;4.168;2023-05-27T12:21:16;14.20;;;4.30;;
19436;SDS011;9854;50.968;4.168;2023-05-27T12:23:42;11.98;;;4.63;;
19436;SDS011;9854;50.968;4.168;2023-05-27T12:26:08;18.52;;;5.40;;
19436;SDS011;9854;50.968;4.168;2023-05-27T12:28:34;11.85;;;5.03;;
19436;SDS011;9854;50.968;4.168;2023-05-27T12:31:00;21.80;;;6.22;;
19436;SDS011;9854;50.968;4.168;2023-05-27T12:33:26;18.48;;;4.95;;
19436;SDS011;9854;50.968;4.168;2023-05-27T12:35:51;14.60;;;4.88;;
19436;SDS011;9854;50.968;4.168;2023-05-27T12:38:17;13.05;;;4.90;;
19436;SDS011;9854;50.968;4.168;2023-05-27T12:40:43;18.05;;;5.18;;
19436;SDS011;9854;50.968;4.168;2023-05-27T12:43:09;15.30;;;4.90;;
19436;SDS011;9854;50.968;4.168;2023-05-27T12:45:34;18.13;;;5.50;;
19436;SDS011;9854;50.968;4.168;2023-05-27T12:48:00;23.25;;;5.85;;
19436;SDS011;9854;50.968;4.168;2023-05-27T12:50:26;17.23;;;4.75;;
19436;SDS011;9854;50.968;4.168;2023-05-27T12:52:52;17.13;;;4.97;;
19436;SDS011;9854;50.968;4.168;2023-05-27T12:55:18;15.02;;;4.72;;
19436;SDS011;9854;50.968;4.168;2023-05-27T12:57:47;11.43;;;4.22;;
19436;SDS011;9854;50.968;4.168;2023-05-27T13:00:14;18.38;;;5.07;;
19436;SDS011;9854;50.968;4.168;2023-05-27T13:02:40;14.63;;;4.72;;
19436;SDS011;9854;50.968;4.168;2023-05-27T13:05:06;17.83;;;4.45;;
19436;SDS011;9854;50.968;4.168;2023-05-27T13:07:32;17.27;;;4.50;;
19436;SDS011;9854;50.968;4.168;2023-05-27T13:10:02;15.23;;;4.57;;
19436;SDS011;9854;50.968;4.168;2023-05-27T13:12:29;14.50;;;4.82;;
19436;SDS011;9854;50.968;4.168;2023-05-27T13:14:57;13.88;;;4.55;;
19436;SDS011;9854;50.968;4.168;2023-05-27T13:17:24;13.95;;;4.93;;
19436;SDS011;9854;50.968;4.168;2023-05-27T13:19:49;13.88;;;4.55;;
19436;SDS011;9854;50.968;4.168;2023-05-27T13:22:15;13.48;;;4.30;;
19436;SDS011;9854;50.968;4.168;2023-05-27T13:24:41;20.95;;;4.93;;
19436;SDS011;9854;50.968;4.168;2023-05-27T13:27:07;15.73;;;4.70;;
19436;SDS011;9854;50.968;4.168;2023-05-27T13:29:34;13.85;;;4.55;;
19436;SDS011;9854;50.968;4.168;2023-05-27T13:32:00;16.67;;;4.30;;
19436;SDS011;9854;50.968;4.168;2023-05-27T13:34:27;14.15;;;4.38;;
19436;SDS011;9854;50.968;4.168;2023-05-27T13:36:54;14.52;;;4.35;;
19436;SDS011;9854;50.968;4.168;2023-05-27T13:39:20;21.30;;;4.28;;
19436;SDS011;9854;50.968;4.168;2023-05-27T13:41:46;18.38;;;4.47;;
19436;SDS011;9854;50.968;4.168;2023-05-27T13:44:12;12.10;;;4.25;;
19436;SDS011;9854;50.968;4.168;2023-05-27T13:46:38;13.45;;;4.40;;
19436;SDS011;9854;50.968;4.168;2023-05-27T13:49:04;11.27;;;4.78;;
19436;SDS011;9854;50.968;4.168;2023-05-27T13:51:29;14.73;;;4.57;;
19436;SDS011;9854;50.968;4.168;2023-05-27T13:53:58;15.70;;;4.40;;
19436;SDS011;9854;50.968;4.168;2023-05-27T13:56:24;13.02;;;3.42;;
19436;SDS011;9854;50.968;4.168;2023-05-27T13:58:51;17.25;;;4.50;;
19436;SDS011;9854;50.968;4.168;2023-05-27T14:01:17;11.60;;;4.40;;
19436;SDS011;9854;50.968;4.168;2023-05-27T14:03:43;9.15;;;3.80;;
19436;SDS011;9854;50.968;4.168;2023-05-27T14:06:09;14.82;;;4.05;;
19436;SDS011;9854;50.968;4.168;2023-05-27T14:08:34;14.10;;;4.03;;
19436;SDS011;9854;50.968;4.168;2023-05-27T14:11:01;17.70;;;4.60;;
19436;SDS011;9854;50.968;4.168;2023-05-27T14:13:27;17.70;;;3.95;;
19436;SDS011;9854;50.968;4.168;2023-05-27T14:15:53;16.30;;;4.90;;
19436;SDS011;9854;50.968;4.168;2023-05-27T14:18:19;15.90;;;4.22;;
19436;SDS011;9854;50.968;4.168;2023-05-27T14:20:45;11.73;;;4.40;;
19436;SDS011;9854;50.968;4.168;2023-05-27T14:23:10;15.23;;;4.68;;
19436;SDS011;9854;50.968;4.168;2023-05-27T14:25:38;15.65;;;4.13;;
19436;SDS011;9854;50.968;4.168;2023-05-27T14:28:03;14.27;;;4.30;;
19436;SDS011;9854;50.968;4.168;2023-05-27T14:30:31;12.68;;;4.05;;
19436;SDS011;9854;50.968;4.168;2023-05-27T14:33:02;20.10;;;4.68;;
19436;SDS011;9854;50.968;4.168;2023-05-27T14:35:32;10.50;;;3.38;;
19436;SDS011;9854;50.968;4.168;2023-05-27T14:38:01;13.35;;;4.18;;
19436;SDS011;9854;50.968;4.168;2023-05-27T14:40:28;17.17;;;4.03;;
19436;SDS011;9854;50.968;4.168;2023-05-27T14:42:53;10.50;;;3.70;;
19436;SDS011;9854;50.968;4.168;2023-05-27T14:45:19;17.83;;;4.13;;
19436;SDS011;9854;50.968;4.168;2023-05-27T14:47:47;9.27;;;3.58;;
19436;SDS011;9854;50.968;4.168;2023-05-27T14:50:15;10.32;;;3.58;;
19436;SDS011;9854;50.968;4.168;2023-05-27T14:52:40;8.43;;;3.38;;